createdAt,value
2017-01-25T00:00:29.476Z,42.6
2017-01-25T00:01:10.033Z,42.69
2017-01-25T00:01:50.758Z,42.6
2017-01-25T00:02:31.389Z,42.6
2017-01-25T00:03:12.028Z,42.69
2017-01-25T00:03:52.656Z,42.79
2017-01-25T00:04:33.321Z,42.5
2017-01-25T00:05:13.940Z,42.69
2017-01-25T00:05:54.574Z,42.6
2017-01-25T00:06:35.205Z,42.6
2017-01-25T00:07:15.844Z,42.6
2017-01-25T00:07:56.569Z,42.69
2017-01-25T00:08:37.316Z,42.69
2017-01-25T00:09:17.945Z,42.6
2017-01-25T00:09:58.575Z,42.6
2017-01-25T00:10:39.207Z,42.6
2017-01-25T00:11:19.849Z,42.6
2017-01-25T00:12:00.560Z,42.6
2017-01-25T00:12:41.185Z,42.79
2017-01-25T00:13:21.819Z,42.6
2017-01-25T00:14:02.464Z,42.6
2017-01-25T00:14:43.154Z,42.79
2017-01-25T00:15:23.799Z,42.5
2017-01-25T00:16:04.430Z,42.6
2017-01-25T00:16:45.070Z,42.79
2017-01-25T00:17:25.727Z,42.79
2017-01-25T00:18:06.408Z,42.5
2017-01-25T00:18:47.078Z,42.88
2017-01-25T00:19:27.704Z,42.6
2017-01-25T00:20:08.352Z,42.5
2017-01-25T00:20:49.009Z,42.98
2017-01-25T00:21:29.633Z,42.6
2017-01-25T00:22:10.345Z,42.5
2017-01-25T00:22:51.023Z,42.5
2017-01-25T00:23:31.671Z,42.6
2017-01-25T00:24:12.339Z,42.5
2017-01-25T00:24:53.049Z,42.5
2017-01-25T00:25:33.735Z,42.88
2017-01-25T00:26:14.335Z,42.79
2017-01-25T00:26:55.085Z,42.69
2017-01-25T00:27:35.766Z,42.69
2017-01-25T00:28:16.402Z,42.79
2017-01-25T00:28:57.114Z,42.88
2017-01-25T00:29:37.756Z,42.79
2017-01-25T00:30:18.393Z,42.6
2017-01-25T00:30:59.082Z,42.79
2017-01-25T00:31:39.735Z,42.88
2017-01-25T00:32:20.370Z,42.88
2017-01-25T00:33:01.085Z,42.79
2017-01-25T00:33:41.751Z,42.88
2017-01-25T00:34:22.394Z,42.88
2017-01-25T00:35:03.080Z,42.79
2017-01-25T00:35:43.718Z,42.79
2017-01-25T00:36:24.371Z,42.88
2017-01-25T00:37:05.038Z,42.88
2017-01-25T00:37:45.779Z,42.79
2017-01-25T00:38:26.456Z,42.88
2017-01-25T00:39:07.105Z,42.69
2017-01-25T00:39:47.736Z,42.88
2017-01-25T00:40:28.367Z,42.88
2017-01-25T00:41:09.006Z,43.07
2017-01-25T00:41:49.658Z,42.79
2017-01-25T00:42:30.331Z,42.79
2017-01-25T00:43:10.971Z,42.79
2017-01-25T00:43:51.648Z,42.79
2017-01-25T00:44:32.282Z,42.88
2017-01-25T00:45:12.924Z,42.79
2017-01-25T00:45:53.590Z,42.79
2017-01-25T00:46:34.257Z,42.77
2017-01-25T00:47:14.885Z,42.79
2017-01-25T00:47:55.517Z,42.6
2017-01-25T00:48:36.147Z,42.79
2017-01-25T00:49:16.794Z,42.79
2017-01-25T00:49:57.427Z,42.79
2017-01-25T00:50:38.108Z,42.88
2017-01-25T00:51:18.740Z,42.79
2017-01-25T00:51:59.457Z,42.69
2017-01-25T00:52:40.154Z,42.88
2017-01-25T00:53:20.807Z,42.79
2017-01-25T00:54:01.430Z,43.07
2017-01-25T00:54:42.064Z,42.6
2017-01-25T00:55:22.691Z,42.88
2017-01-25T00:56:03.385Z,42.88
2017-01-25T00:56:44.118Z,42.88
2017-01-25T00:57:24.750Z,42.96
2017-01-25T00:58:05.387Z,42.88
2017-01-25T00:58:46.087Z,42.98
2017-01-25T00:59:26.772Z,42.96
2017-01-25T01:00:07.365Z,42.98
2017-01-25T01:00:48.056Z,42.88
2017-01-25T01:01:28.756Z,42.86
2017-01-25T01:02:09.395Z,42.98
2017-01-25T01:02:50.044Z,42.98
2017-01-25T01:03:30.745Z,42.79
2017-01-25T01:04:11.372Z,42.88
2017-01-25T01:04:52.039Z,42.79
2017-01-25T01:05:32.671Z,42.79
2017-01-25T01:06:13.309Z,42.86
2017-01-25T01:06:53.977Z,42.79
2017-01-25T01:07:34.620Z,42.77
2017-01-25T01:08:15.261Z,42.79
2017-01-25T01:08:55.930Z,42.79
2017-01-25T01:09:36.608Z,42.77
2017-01-25T01:10:17.297Z,42.86
2017-01-25T01:10:57.997Z,42.86
2017-01-25T01:11:38.627Z,43.05
2017-01-25T01:12:19.262Z,42.88
2017-01-25T01:12:59.995Z,42.79
2017-01-25T01:13:40.705Z,42.77
2017-01-25T01:14:21.354Z,42.67
2017-01-25T01:15:02.004Z,42.77
2017-01-25T01:15:42.720Z,42.57
2017-01-25T01:16:23.373Z,42.57
2017-01-25T01:17:04.036Z,43.24
2017-01-25T01:17:44.698Z,42.77
2017-01-25T01:18:25.349Z,42.96
2017-01-25T01:19:05.985Z,42.67
2017-01-25T01:19:46.635Z,43.05
2017-01-25T01:20:27.275Z,43.05
2017-01-25T01:21:07.913Z,42.77
2017-01-25T01:21:48.562Z,43.27
2017-01-25T01:22:29.230Z,43.34
2017-01-25T01:23:09.860Z,43.24
2017-01-25T01:23:50.566Z,43.34
2017-01-25T01:24:31.262Z,43.34
2017-01-25T01:25:11.892Z,43.34
2017-01-25T01:25:52.560Z,43.34
2017-01-25T01:26:33.247Z,43.05
2017-01-25T01:27:13.892Z,43.05
2017-01-25T01:27:54.542Z,43.34
2017-01-25T01:28:35.277Z,43.05
2017-01-25T01:29:15.966Z,43.34
2017-01-25T01:29:56.621Z,43.15
2017-01-25T01:30:37.364Z,43.05
2017-01-25T01:31:18.038Z,43.07
2017-01-25T01:31:58.669Z,43.05
2017-01-25T01:32:39.399Z,43.05
2017-01-25T01:33:20.025Z,43.15
2017-01-25T01:34:00.665Z,43.34
2017-01-25T01:34:41.412Z,43.15
2017-01-25T01:35:22.098Z,43.15
2017-01-25T01:36:02.734Z,43.15
2017-01-25T01:36:43.367Z,42.86
2017-01-25T01:37:24.071Z,43.05
2017-01-25T01:38:05.775Z,43.15
2017-01-25T01:38:46.417Z,43.15
2017-01-25T01:39:27.073Z,42.86
2017-01-25T01:40:07.705Z,43.05
2017-01-25T01:40:48.343Z,43.15
2017-01-25T01:41:29.003Z,43.15
2017-01-25T01:42:09.664Z,42.96
2017-01-25T01:42:50.281Z,43.34
2017-01-25T01:43:30.994Z,43.15
2017-01-25T01:44:11.749Z,43.24
2017-01-25T01:44:52.395Z,42.86
2017-01-25T01:45:33.047Z,42.96
2017-01-25T01:46:13.752Z,42.86
2017-01-25T01:46:54.391Z,43.24
2017-01-25T01:47:35.042Z,42.86
2017-01-25T01:48:15.749Z,43.05
2017-01-25T01:48:56.441Z,42.96
2017-01-25T01:49:37.081Z,42.96
2017-01-25T01:50:17.716Z,42.96
2017-01-25T01:50:58.415Z,43.05
2017-01-25T01:51:39.062Z,42.96
2017-01-25T01:52:19.703Z,43.15
2017-01-25T01:53:00.420Z,43.05
2017-01-25T01:53:41.060Z,42.96
2017-01-25T01:54:21.786Z,43.05
2017-01-25T01:55:02.511Z,42.96
2017-01-25T01:55:43.140Z,43.15
2017-01-25T01:56:23.802Z,42.96
2017-01-25T01:57:04.502Z,42.96
2017-01-25T01:57:45.235Z,43.34
2017-01-25T01:58:25.860Z,43.05
2017-01-25T01:59:06.596Z,43.05
2017-01-25T01:59:47.279Z,43.24
2017-01-25T02:00:27.913Z,43.24
2017-01-25T02:01:08.609Z,43.24
2017-01-25T02:01:49.353Z,43.34
2017-01-25T02:02:30.049Z,43.44
2017-01-25T02:03:10.684Z,43.24
2017-01-25T02:03:51.363Z,43.34
2017-01-25T02:04:31.984Z,43.24
2017-01-25T02:05:12.649Z,43.34
2017-01-25T02:05:53.324Z,43.24
2017-01-25T02:06:34.052Z,43.44
2017-01-25T02:07:14.699Z,43.24
2017-01-25T02:07:55.324Z,43.24
2017-01-25T02:08:36.027Z,43.24
2017-01-25T02:09:16.664Z,43.24
2017-01-25T02:09:57.369Z,43.44
2017-01-25T02:10:38.124Z,43.24
2017-01-25T02:11:18.768Z,43.24
2017-01-25T02:11:59.391Z,43.24
2017-01-25T02:12:40.090Z,43.24
2017-01-25T02:13:20.788Z,43.24
2017-01-25T02:14:01.428Z,43.24
2017-01-25T02:14:42.090Z,43.24
2017-01-25T02:15:22.792Z,43.24
2017-01-25T02:16:03.435Z,43.24
2017-01-25T02:16:44.203Z,43.44
2017-01-25T02:17:24.861Z,43.15
2017-01-25T02:18:05.572Z,43.24
2017-01-25T02:18:46.221Z,43.24
2017-01-25T02:19:26.951Z,43.15
2017-01-25T02:20:07.621Z,43.24
2017-01-25T02:20:48.278Z,43.24
2017-01-25T02:21:29.019Z,43.24
2017-01-25T02:22:09.780Z,43.05
2017-01-25T02:22:50.453Z,43.24
2017-01-25T02:23:31.096Z,43.24
2017-01-25T02:24:11.858Z,43.24
2017-01-25T02:24:52.495Z,43.15
2017-01-25T02:25:33.125Z,43.15
2017-01-25T02:26:13.792Z,43.05
2017-01-25T02:26:54.532Z,43.34
2017-01-25T02:27:35.158Z,43.34
2017-01-25T02:28:15.838Z,43.34
2017-01-25T02:28:56.543Z,43.34
2017-01-25T02:29:37.224Z,43.24
2017-01-25T02:30:17.796Z,43.15
2017-01-25T02:30:58.468Z,43.15
2017-01-25T02:31:39.177Z,42.96
2017-01-25T02:32:19.721Z,43.05
2017-01-25T02:33:00.396Z,43.05
2017-01-25T02:33:41.056Z,43.05
2017-01-25T02:34:21.672Z,43.05
2017-01-25T02:35:02.304Z,43.53
2017-01-25T02:35:42.932Z,43.15
2017-01-25T02:36:23.564Z,43.05
2017-01-25T02:37:04.219Z,43.15
2017-01-25T02:37:44.859Z,43.44
2017-01-25T02:38:25.562Z,43.53
2017-01-25T02:39:06.261Z,43.53
2017-01-25T02:39:46.938Z,43.34
2017-01-25T02:40:27.579Z,43.34
2017-01-25T02:41:08.276Z,43.53
2017-01-25T02:41:48.917Z,43.63
2017-01-25T02:42:29.552Z,43.44
2017-01-25T02:43:10.282Z,43.73
2017-01-25T02:43:51.006Z,43.44
2017-01-25T02:44:31.641Z,43.53
2017-01-25T02:45:12.388Z,43.63
2017-01-25T02:45:53.008Z,43.53
2017-01-25T02:46:33.645Z,43.63
2017-01-25T02:47:14.303Z,43.63
2017-01-25T02:47:54.935Z,43.63
2017-01-25T02:48:35.561Z,43.63
2017-01-25T02:49:16.267Z,43.53
2017-01-25T02:49:56.977Z,43.53
2017-01-25T02:50:37.624Z,43.44
2017-01-25T02:51:18.272Z,43.53
2017-01-25T02:51:59.005Z,43.63
2017-01-25T02:52:39.642Z,43.63
2017-01-25T02:53:20.292Z,43.44
2017-01-25T02:54:00.986Z,43.63
2017-01-25T02:54:41.698Z,43.53
2017-01-25T02:55:22.372Z,43.63
2017-01-25T02:56:03.003Z,43.63
2017-01-25T02:56:43.692Z,43.73
2017-01-25T02:57:24.326Z,43.91
2017-01-25T02:58:05.046Z,43.73
2017-01-25T02:58:45.777Z,43.53
2017-01-25T02:59:26.427Z,43.91
2017-01-25T03:00:07.069Z,43.91
2017-01-25T03:00:47.770Z,43.63
2017-01-25T03:01:28.529Z,43.63
2017-01-25T03:02:09.168Z,43.91
2017-01-25T03:02:49.911Z,43.63
2017-01-25T03:03:30.548Z,43.73
2017-01-25T03:04:11.194Z,43.82
2017-01-25T03:04:51.822Z,43.73
2017-01-25T03:05:32.451Z,44.01
2017-01-25T03:06:13.084Z,43.82
2017-01-25T03:06:53.759Z,43.34
2017-01-25T03:07:34.454Z,43.82
2017-01-25T03:08:15.128Z,43.82
2017-01-25T03:08:55.779Z,43.82
2017-01-25T03:09:36.473Z,43.82
2017-01-25T03:10:17.129Z,43.82
2017-01-25T03:10:57.757Z,43.53
2017-01-25T03:11:38.427Z,43.24
2017-01-25T03:12:19.062Z,43.63
2017-01-25T03:12:59.745Z,43.34
2017-01-25T03:13:40.353Z,43.34
2017-01-25T03:14:21.049Z,43.34
2017-01-25T03:15:01.676Z,43.73
2017-01-25T03:15:42.324Z,43.82
2017-01-25T03:16:22.993Z,43.73
2017-01-25T03:17:03.633Z,43.53
2017-01-25T03:17:44.255Z,43.63
2017-01-25T03:18:24.969Z,43.63
2017-01-25T03:19:05.594Z,43.34
2017-01-25T03:19:46.284Z,43.82
2017-01-25T03:20:26.973Z,43.82
2017-01-25T03:21:07.599Z,43.73
2017-01-25T03:21:48.266Z,43.34
2017-01-25T03:22:28.906Z,43.82
2017-01-25T03:23:09.541Z,43.82
2017-01-25T03:23:50.272Z,43.82
2017-01-25T03:24:30.937Z,43.53
2017-01-25T03:25:11.569Z,43.82
2017-01-25T03:25:52.192Z,43.73
2017-01-25T03:26:32.911Z,43.34
2017-01-25T03:27:13.663Z,43.34
2017-01-25T03:27:54.299Z,43.34
2017-01-25T03:28:35.042Z,43.34
2017-01-25T03:29:15.706Z,43.53
2017-01-25T03:29:56.352Z,44.01
2017-01-25T03:30:37.018Z,43.53
2017-01-25T03:31:17.649Z,44.01
2017-01-25T03:31:58.311Z,44.01
2017-01-25T03:32:39.038Z,43.53
2017-01-25T03:33:19.686Z,44.01
2017-01-25T03:34:00.323Z,43.53
2017-01-25T03:34:40.957Z,43.44
2017-01-25T03:35:21.651Z,44.01
2017-01-25T03:36:02.296Z,43.53
2017-01-25T03:36:42.908Z,43.53
2017-01-25T03:37:23.534Z,44.01
2017-01-25T03:38:04.184Z,43.63
2017-01-25T03:38:51.729Z,44.01
2017-01-25T03:39:32.408Z,44.01
2017-01-25T03:40:13.042Z,44.01
2017-01-25T03:40:53.696Z,43.91
2017-01-25T03:41:34.398Z,44.01
2017-01-25T03:42:15.027Z,43.53
2017-01-25T03:42:55.653Z,43.53
2017-01-25T03:43:36.328Z,43.34
2017-01-25T03:44:16.957Z,44.11
2017-01-25T03:44:57.680Z,43.91
2017-01-25T03:45:38.385Z,43.63
2017-01-25T03:46:19.044Z,43.53
2017-01-25T03:46:59.710Z,43.53
2017-01-25T03:47:40.419Z,44.01
2017-01-25T03:48:21.044Z,43.91
2017-01-25T03:49:01.696Z,44.01
2017-01-25T03:49:42.375Z,44.01
2017-01-25T03:50:23.005Z,43.91
2017-01-25T03:51:03.642Z,43.53
2017-01-25T03:51:44.294Z,44.01
2017-01-25T03:52:24.976Z,43.91
2017-01-25T03:53:05.626Z,44.01
2017-01-25T03:53:46.285Z,43.63
2017-01-25T03:54:26.975Z,43.63
2017-01-25T03:55:07.617Z,43.91
2017-01-25T03:55:48.329Z,43.53
2017-01-25T03:56:29.055Z,43.53
2017-01-25T03:57:09.729Z,43.53
2017-01-25T03:57:50.370Z,43.53
2017-01-25T03:58:31.024Z,43.91
2017-01-25T03:59:11.707Z,44.11
2017-01-25T03:59:52.377Z,44.01
2017-01-25T04:00:33.017Z,43.53
2017-01-25T04:01:13.721Z,43.53
2017-01-25T04:01:54.351Z,43.34
2017-01-25T04:02:34.991Z,43.53
2017-01-25T04:03:15.679Z,43.53
2017-01-25T04:03:56.305Z,43.63
2017-01-25T04:04:37.003Z,43.53
2017-01-25T04:05:17.639Z,43.53
2017-01-25T04:05:58.273Z,43.44
2017-01-25T04:06:38.901Z,43.44
2017-01-25T04:07:19.660Z,43.44
2017-01-25T04:08:00.331Z,43.32
2017-01-25T04:08:40.963Z,43.44
2017-01-25T04:09:21.594Z,43.44
2017-01-25T04:10:02.228Z,43.91
2017-01-25T04:10:42.922Z,44.01
2017-01-25T04:11:23.554Z,44.01
2017-01-25T04:12:04.182Z,44.01
2017-01-25T04:12:44.816Z,43.53
2017-01-25T04:13:25.508Z,43.53
2017-01-25T04:14:06.140Z,44.11
2017-01-25T04:14:46.772Z,44.01
2017-01-25T04:15:27.468Z,44.01
2017-01-25T04:16:08.095Z,43.73
2017-01-25T04:16:48.800Z,43.91
2017-01-25T04:17:29.529Z,43.63
2017-01-25T04:18:10.198Z,43.73
2017-01-25T04:18:50.837Z,43.63
2017-01-25T04:19:31.517Z,43.7
2017-01-25T04:20:12.212Z,43.73
2017-01-25T04:20:52.830Z,43.9
2017-01-25T04:21:33.463Z,43.8
2017-01-25T04:22:14.093Z,43.82
2017-01-25T04:22:54.725Z,43.8
2017-01-25T04:23:35.336Z,43.73
2017-01-25T04:24:16.074Z,43.53
2017-01-25T04:24:56.693Z,43.53
2017-01-25T04:25:37.390Z,43.51
2017-01-25T04:26:18.072Z,43.73
2017-01-25T04:26:58.706Z,43.63
2017-01-25T04:27:39.424Z,43.63
2017-01-25T04:28:20.136Z,43.6
2017-01-25T04:29:00.868Z,43.6
2017-01-25T04:29:41.391Z,43.6
2017-01-25T04:30:22.104Z,43.73
2017-01-25T04:31:02.757Z,43.7
2017-01-25T04:31:43.400Z,43.8
2017-01-25T04:32:24.055Z,43.8
2017-01-25T04:33:04.690Z,43.9
2017-01-25T04:33:45.329Z,43.9
2017-01-25T04:34:25.997Z,43.6
2017-01-25T04:35:06.716Z,43.6
2017-01-25T04:35:47.389Z,43.7
2017-01-25T04:36:28.037Z,43.7
2017-01-25T04:37:08.689Z,43.82
2017-01-25T04:37:49.313Z,43.51
2017-01-25T04:38:30.060Z,43.6
2017-01-25T04:39:10.713Z,43.6
2017-01-25T04:39:51.347Z,43.8
2017-01-25T04:40:32.058Z,43.8
2017-01-25T04:41:12.690Z,44.2
2017-01-25T04:41:53.328Z,44.18
2017-01-25T04:42:34.007Z,44.09
2017-01-25T04:43:14.710Z,44.09
2017-01-25T04:43:55.339Z,43.99
2017-01-25T04:44:35.981Z,43.8
2017-01-25T04:45:16.673Z,44.09
2017-01-25T04:45:57.393Z,44.37
2017-01-25T04:46:37.933Z,44.09
2017-01-25T04:47:18.568Z,44.37
2017-01-25T04:47:59.198Z,44.3
2017-01-25T04:48:39.846Z,43.99
2017-01-25T04:49:20.489Z,44.37
2017-01-25T04:50:01.109Z,44.18
2017-01-25T04:50:41.812Z,44.37
2017-01-25T04:51:22.464Z,44.27
2017-01-25T04:52:03.102Z,44.18
2017-01-25T04:52:43.722Z,44.37
2017-01-25T04:53:24.466Z,44.18
2017-01-25T04:54:05.099Z,44.37
2017-01-25T04:54:45.729Z,44.18
2017-01-25T04:55:26.424Z,44.37
2017-01-25T04:56:07.049Z,44.37
2017-01-25T04:56:47.675Z,44.47
2017-01-25T04:57:28.357Z,44.47
2017-01-25T04:58:09.077Z,44.4
2017-01-25T04:58:49.747Z,44.37
2017-01-25T04:59:30.446Z,44.37
2017-01-25T05:00:11.144Z,44.27
2017-01-25T05:00:51.789Z,44.27
2017-01-25T05:01:32.513Z,44.37
2017-01-25T05:02:13.213Z,44.37
2017-01-25T05:02:53.857Z,44.37
2017-01-25T05:03:34.482Z,44.37
2017-01-25T05:04:15.169Z,44.18
2017-01-25T05:04:55.806Z,44.27
2017-01-25T05:05:36.433Z,44.18
2017-01-25T05:06:17.091Z,44.37
2017-01-25T05:06:57.818Z,44.37
2017-01-25T05:07:38.472Z,44.37
2017-01-25T05:08:19.128Z,44.56
2017-01-25T05:08:59.815Z,44.37
2017-01-25T05:09:40.429Z,44.47
2017-01-25T05:10:21.068Z,44.37
2017-01-25T05:11:01.729Z,44.37
2017-01-25T05:11:42.365Z,44.37
2017-01-25T05:12:23.066Z,44.37
2017-01-25T05:13:03.712Z,44.27
2017-01-25T05:13:44.368Z,44.27
2017-01-25T05:14:25.127Z,44.27
2017-01-25T05:15:05.883Z,44.27
2017-01-25T05:15:46.623Z,44.18
2017-01-25T05:16:27.270Z,44.18
2017-01-25T05:17:07.944Z,44.18
2017-01-25T05:17:48.624Z,44.18
2017-01-25T05:18:29.269Z,44.37
2017-01-25T05:19:09.936Z,44.27
2017-01-25T05:19:50.580Z,44.37
2017-01-25T05:20:31.237Z,44.27
2017-01-25T05:21:11.939Z,44.18
2017-01-25T05:21:52.643Z,44.18
2017-01-25T05:22:33.316Z,44.37
2017-01-25T05:23:13.965Z,44.27
2017-01-25T05:23:54.666Z,44.27
2017-01-25T05:24:35.299Z,44.18
2017-01-25T05:25:15.924Z,44.37
2017-01-25T05:25:56.660Z,44.27
2017-01-25T05:26:37.282Z,44.27
2017-01-25T05:27:17.918Z,44.27
2017-01-25T05:27:58.648Z,44.27
2017-01-25T05:28:39.329Z,44.27
2017-01-25T05:29:19.955Z,44.37
2017-01-25T05:30:00.651Z,44.37
2017-01-25T05:30:41.338Z,44.18
2017-01-25T05:31:21.993Z,44.27
2017-01-25T05:32:02.654Z,44.27
2017-01-25T05:32:43.368Z,44.27
2017-01-25T05:33:24.111Z,44.27
2017-01-25T05:34:04.729Z,44.27
2017-01-25T05:34:45.382Z,44.27
2017-01-25T05:35:26.060Z,44.37
2017-01-25T05:36:06.679Z,44.27
2017-01-25T05:36:47.318Z,44.27
2017-01-25T05:37:27.965Z,44.27
2017-01-25T05:38:08.590Z,44.27
2017-01-25T05:38:49.224Z,44.27
2017-01-25T05:39:29.929Z,44.27
2017-01-25T05:40:10.561Z,44.18
2017-01-25T05:40:51.268Z,44.37
2017-01-25T05:41:31.895Z,44.27
2017-01-25T05:42:12.532Z,44.18
2017-01-25T05:42:53.206Z,44.37
2017-01-25T05:43:33.872Z,44.27
2017-01-25T05:44:14.519Z,44.37
2017-01-25T05:44:55.179Z,44.18
2017-01-25T05:45:35.824Z,44.18
2017-01-25T05:46:16.472Z,44.18
2017-01-25T05:46:57.166Z,44.09
2017-01-25T05:47:37.832Z,44.66
2017-01-25T05:48:18.460Z,44.09
2017-01-25T05:48:59.090Z,44.18
2017-01-25T05:49:39.765Z,44.18
2017-01-25T05:50:20.388Z,44.76
2017-01-25T05:51:01.076Z,44.76
2017-01-25T05:51:41.796Z,44.66
2017-01-25T05:52:22.475Z,44.76
2017-01-25T05:53:03.116Z,44.66
2017-01-25T05:53:43.788Z,44.66
2017-01-25T05:54:24.451Z,44.76
2017-01-25T05:55:05.081Z,44.76
2017-01-25T05:55:45.796Z,44.66
2017-01-25T05:56:26.417Z,44.66
2017-01-25T05:57:07.073Z,44.66
2017-01-25T05:57:47.739Z,44.66
2017-01-25T05:58:28.421Z,44.66
2017-01-25T05:59:09.052Z,44.56
2017-01-25T05:59:49.685Z,44.56
2017-01-25T06:00:30.436Z,44.56
2017-01-25T06:01:11.071Z,44.37
2017-01-25T06:01:51.785Z,44.37
2017-01-25T06:02:32.501Z,44.47
2017-01-25T06:03:13.150Z,44.56
2017-01-25T06:03:53.795Z,44.56
2017-01-25T06:04:34.496Z,44.37
2017-01-25T06:05:15.201Z,44.47
2017-01-25T06:05:55.829Z,44.37
2017-01-25T06:06:36.534Z,44.56
2017-01-25T06:07:17.272Z,44.47
2017-01-25T06:07:57.914Z,44.56
2017-01-25T06:08:38.537Z,44.56
2017-01-25T06:09:19.214Z,44.56
2017-01-25T06:09:59.800Z,44.56
2017-01-25T06:10:40.495Z,44.56
2017-01-25T06:11:21.176Z,44.47
2017-01-25T06:12:01.799Z,44.56
2017-01-25T06:12:42.480Z,44.66
2017-01-25T06:13:23.198Z,44.56
2017-01-25T06:14:03.839Z,44.66
2017-01-25T06:14:44.482Z,44.76
2017-01-25T06:15:25.201Z,44.66
2017-01-25T06:16:05.832Z,44.56
2017-01-25T06:16:46.467Z,44.56
2017-01-25T06:17:27.131Z,44.85
2017-01-25T06:18:07.837Z,44.85
2017-01-25T06:18:48.460Z,44.85
2017-01-25T06:19:29.080Z,44.76
2017-01-25T06:20:09.708Z,44.76
2017-01-25T06:20:50.338Z,44.85
2017-01-25T06:21:30.974Z,44.76
2017-01-25T06:22:11.650Z,44.85
2017-01-25T06:22:52.296Z,44.85
2017-01-25T06:23:33.023Z,44.95
2017-01-25T06:24:13.738Z,44.85
2017-01-25T06:24:54.375Z,44.85
2017-01-25T06:25:35.016Z,44.95
2017-01-25T06:26:15.669Z,44.66
2017-01-25T06:26:56.295Z,44.85
2017-01-25T06:27:36.977Z,44.85
2017-01-25T06:28:17.607Z,44.95
2017-01-25T06:28:58.235Z,44.76
2017-01-25T06:29:38.907Z,44.76
2017-01-25T06:30:19.545Z,44.66
2017-01-25T06:31:00.177Z,44.85
2017-01-25T06:31:40.955Z,44.85
2017-01-25T06:32:21.595Z,44.76
2017-01-25T06:33:02.215Z,44.76
2017-01-25T06:33:42.861Z,44.95
2017-01-25T06:34:23.498Z,44.76
2017-01-25T06:35:04.131Z,44.85
2017-01-25T06:35:44.814Z,44.66
2017-01-25T06:36:25.538Z,44.95
2017-01-25T06:37:06.250Z,44.95
2017-01-25T06:37:46.906Z,44.85
2017-01-25T06:38:27.559Z,44.85
2017-01-25T06:39:08.255Z,44.95
2017-01-25T06:39:48.880Z,44.85
2017-01-25T06:40:29.501Z,44.85
2017-01-25T06:41:10.133Z,44.95
2017-01-25T06:41:50.763Z,44.95
2017-01-25T06:42:31.394Z,44.85
2017-01-25T06:43:12.021Z,44.85
2017-01-25T06:43:52.677Z,44.85
2017-01-25T06:44:33.406Z,44.76
2017-01-25T06:45:14.110Z,44.95
2017-01-25T06:45:54.747Z,44.95
2017-01-25T06:46:35.475Z,44.95
2017-01-25T06:47:16.116Z,44.85
2017-01-25T06:47:56.750Z,44.95
2017-01-25T06:48:37.418Z,44.85
2017-01-25T06:49:18.047Z,44.85
2017-01-25T06:49:58.675Z,44.95
2017-01-25T06:50:39.323Z,44.95
2017-01-25T06:51:20.042Z,44.85
2017-01-25T06:52:00.680Z,44.85
2017-01-25T06:52:41.340Z,44.85
2017-01-25T06:53:22.003Z,44.85
2017-01-25T06:54:02.664Z,44.85
2017-01-25T06:54:43.272Z,44.95
2017-01-25T06:55:23.982Z,44.85
2017-01-25T06:56:04.674Z,44.76
2017-01-25T06:56:45.309Z,44.85
2017-01-25T06:57:26.055Z,44.85
2017-01-25T06:58:06.737Z,44.85
2017-01-25T06:58:47.380Z,44.95
2017-01-25T06:59:28.077Z,44.85
2017-01-25T07:00:08.703Z,44.85
2017-01-25T07:00:49.329Z,44.95
2017-01-25T07:01:30.086Z,44.85
2017-01-25T07:02:10.746Z,44.85
2017-01-25T07:02:51.389Z,44.76
2017-01-25T07:03:32.085Z,44.95
2017-01-25T07:04:12.721Z,44.85
2017-01-25T07:04:53.488Z,44.85
2017-01-25T07:05:34.131Z,44.85
2017-01-25T07:06:14.861Z,44.85
2017-01-25T07:06:55.517Z,44.95
2017-01-25T07:07:36.175Z,44.95
2017-01-25T07:08:16.865Z,44.85
2017-01-25T07:08:57.614Z,44.85
2017-01-25T07:09:38.308Z,45.04
2017-01-25T07:10:18.949Z,44.76
2017-01-25T07:10:59.645Z,44.95
2017-01-25T07:11:40.307Z,44.85
2017-01-25T07:12:20.936Z,44.95
2017-01-25T07:13:01.575Z,44.85
2017-01-25T07:13:42.240Z,44.85
2017-01-25T07:14:22.868Z,44.85
2017-01-25T07:15:03.513Z,44.85
2017-01-25T07:15:44.134Z,44.85
2017-01-25T07:16:24.763Z,45.04
2017-01-25T07:17:05.493Z,44.85
2017-01-25T07:17:46.169Z,44.85
2017-01-25T07:18:26.811Z,44.85
2017-01-25T07:19:07.571Z,44.95
2017-01-25T07:19:48.261Z,44.85
2017-01-25T07:20:28.960Z,44.95
2017-01-25T07:21:09.532Z,44.85
2017-01-25T07:21:50.231Z,44.95
2017-01-25T07:22:30.970Z,44.85
2017-01-25T07:23:11.622Z,44.95
2017-01-25T07:23:52.282Z,44.85
2017-01-25T07:24:32.924Z,44.76
2017-01-25T07:25:13.555Z,44.85
2017-01-25T07:25:55.260Z,44.85
2017-01-25T07:26:35.927Z,44.95
2017-01-25T07:27:16.566Z,44.95
2017-01-25T07:27:57.277Z,44.85
2017-01-25T07:28:37.907Z,44.95
2017-01-25T07:29:18.540Z,44.85
2017-01-25T07:29:59.275Z,44.85
2017-01-25T07:30:39.948Z,44.95
2017-01-25T07:31:20.567Z,44.85
2017-01-25T07:32:01.201Z,44.76
2017-01-25T07:32:41.885Z,44.85
2017-01-25T07:33:22.577Z,44.95
2017-01-25T07:34:03.223Z,44.85
2017-01-25T07:34:43.847Z,44.76
2017-01-25T07:35:24.487Z,44.66
2017-01-25T07:36:05.125Z,44.85
2017-01-25T07:36:45.767Z,44.76
2017-01-25T07:37:26.416Z,44.85
2017-01-25T07:38:07.035Z,44.66
2017-01-25T07:38:47.794Z,44.85
2017-01-25T07:39:28.422Z,44.76
2017-01-25T07:40:09.075Z,44.76
2017-01-25T07:40:49.726Z,44.85
2017-01-25T07:41:30.356Z,44.95
2017-01-25T07:42:10.994Z,44.76
2017-01-25T07:42:51.617Z,44.76
2017-01-25T07:43:32.304Z,44.76
2017-01-25T07:44:12.992Z,44.76
2017-01-25T07:44:53.699Z,44.76
2017-01-25T07:45:34.350Z,44.85
2017-01-25T07:46:14.983Z,44.85
2017-01-25T07:46:55.619Z,44.66
2017-01-25T07:47:36.278Z,44.95
2017-01-25T07:48:16.911Z,44.76
2017-01-25T07:48:57.566Z,44.76
2017-01-25T07:49:38.195Z,44.85
2017-01-25T07:50:18.822Z,44.85
2017-01-25T07:50:59.512Z,44.76
2017-01-25T07:51:40.140Z,44.85
2017-01-25T07:52:20.778Z,44.85
2017-01-25T07:53:01.427Z,44.76
2017-01-25T07:53:42.049Z,44.76
2017-01-25T07:54:22.684Z,44.66
2017-01-25T07:55:03.352Z,44.76
2017-01-25T07:55:43.989Z,44.66
2017-01-25T07:56:24.606Z,44.66
2017-01-25T07:57:05.244Z,44.66
2017-01-25T07:57:45.954Z,44.66
2017-01-25T07:58:26.602Z,44.66
2017-01-25T07:59:07.263Z,44.66
2017-01-25T07:59:47.960Z,44.56
2017-01-25T08:00:28.585Z,44.66
2017-01-25T08:01:09.287Z,44.47
2017-01-25T08:01:50.007Z,44.76
2017-01-25T08:02:30.648Z,44.47
2017-01-25T08:03:11.295Z,44.47
2017-01-25T08:03:52.044Z,44.56
2017-01-25T08:04:32.687Z,44.37
2017-01-25T08:05:13.335Z,44.47
2017-01-25T08:05:53.961Z,44.37
2017-01-25T08:06:34.605Z,44.37
2017-01-25T08:07:15.231Z,44.47
2017-01-25T08:07:55.866Z,44.56
2017-01-25T08:08:36.510Z,44.37
2017-01-25T08:09:17.129Z,44.56
2017-01-25T08:09:57.820Z,44.47
2017-01-25T08:10:38.453Z,44.56
2017-01-25T08:11:19.084Z,44.47
2017-01-25T08:11:59.723Z,44.47
2017-01-25T08:12:40.354Z,44.37
2017-01-25T08:13:20.990Z,44.66
2017-01-25T08:14:01.643Z,44.47
2017-01-25T08:14:42.290Z,44.56
2017-01-25T08:15:22.999Z,44.47
2017-01-25T08:16:04.575Z,44.66
2017-01-25T08:16:45.239Z,44.56
2017-01-25T08:17:25.937Z,44.37
2017-01-25T08:18:06.634Z,44.47
2017-01-25T08:18:47.252Z,44.56
2017-01-25T08:19:27.881Z,44.47
2017-01-25T08:20:08.539Z,44.47
2017-01-25T08:20:49.157Z,44.56
2017-01-25T08:21:29.780Z,44.66
2017-01-25T08:22:10.404Z,44.56
2017-01-25T08:22:51.033Z,44.66
2017-01-25T08:23:31.688Z,44.56
2017-01-25T08:24:12.372Z,44.76
2017-01-25T08:24:53.010Z,44.76
2017-01-25T08:25:33.659Z,44.56
2017-01-25T08:26:14.314Z,44.66
2017-01-25T08:26:54.942Z,44.76
2017-01-25T08:27:35.666Z,43.9
2017-01-25T08:28:16.291Z,44.76
2017-01-25T08:28:56.932Z,43.9
2017-01-25T08:29:37.580Z,44.66
2017-01-25T08:30:18.222Z,44.66
2017-01-25T08:30:58.855Z,44.18
2017-01-25T08:31:39.521Z,44.18
2017-01-25T08:32:20.209Z,44.09
2017-01-25T08:33:00.844Z,43.99
2017-01-25T08:33:41.461Z,44.09
2017-01-25T08:34:22.140Z,44.09
2017-01-25T08:35:02.789Z,44.09
2017-01-25T08:35:43.419Z,44.09
2017-01-25T08:36:24.072Z,44.27
2017-01-25T08:37:04.706Z,44.18
2017-01-25T08:37:45.340Z,44.18
2017-01-25T08:38:26.007Z,44.37
2017-01-25T08:39:06.631Z,44.35
2017-01-25T08:39:47.279Z,44.37
2017-01-25T08:40:28.022Z,44.18
2017-01-25T08:41:08.710Z,44.37
2017-01-25T08:41:49.343Z,44.27
2017-01-25T08:42:30.052Z,44.27
2017-01-25T08:43:10.684Z,44.27
2017-01-25T08:43:51.322Z,44.27
2017-01-25T08:44:31.992Z,44.26
2017-01-25T08:45:12.636Z,44.37